createdAt,value
2018-03-20T00:02:15.546Z,60.26
2018-03-20T00:04:43.095Z,60.16
2018-03-20T00:07:10.695Z,60.53
2018-03-20T00:09:38.242Z,60.64
2018-03-20T00:12:05.805Z,60.12
2018-03-20T00:14:33.352Z,59.79
2018-03-20T00:17:00.908Z,59.94
2018-03-20T00:19:28.465Z,59.96
2018-03-20T00:21:56.033Z,60.84
2018-03-20T00:24:23.568Z,61.85
2018-03-20T00:26:51.091Z,60.86
2018-03-20T00:29:18.722Z,60.27
2018-03-20T00:31:46.256Z,60.37
2018-03-20T00:34:13.846Z,60.47
2018-03-20T00:36:41.399Z,60.65
2018-03-20T00:39:08.951Z,59.97
2018-03-20T00:41:36.624Z,60.09
2018-03-20T00:44:04.184Z,59.99
2018-03-20T00:46:31.716Z,59.78
2018-03-20T00:48:59.283Z,59.83
2018-03-20T00:51:26.807Z,60.35
2018-03-20T00:53:54.417Z,60.51
2018-03-20T00:56:21.984Z,60.14
2018-03-20T00:58:49.536Z,60.26
2018-03-20T01:01:17.119Z,60.05
2018-03-20T01:03:44.661Z,60.01
2018-03-20T01:06:12.214Z,60.55
2018-03-20T01:08:39.746Z,60.20
2018-03-20T01:11:07.312Z,60.22
2018-03-20T01:13:34.852Z,60.21
2018-03-20T01:16:02.406Z,59.83
2018-03-20T01:18:29.948Z,60.85
2018-03-20T01:20:57.487Z,60.83
2018-03-20T01:23:25.935Z,60.42
2018-03-20T01:25:53.469Z,60.12
2018-03-20T01:28:21.031Z,60.09
2018-03-20T01:30:48.563Z,60.32
2018-03-20T01:33:16.124Z,61.01
2018-03-20T01:35:43.649Z,60.94
2018-03-20T01:38:11.281Z,60.68
2018-03-20T01:40:38.806Z,61.44
2018-03-20T01:43:06.348Z,61.26
2018-03-20T01:45:33.904Z,62.13
2018-03-20T01:48:01.444Z,61.17
2018-03-20T01:50:29.005Z,60.42
2018-03-20T01:53:08.265Z,60.13
2018-03-20T01:55:35.845Z,60.54
2018-03-20T01:58:03.422Z,60.72
2018-03-20T02:00:31.049Z,60.67
2018-03-20T02:02:58.580Z,59.90
2018-03-20T02:05:26.651Z,60.32
2018-03-20T02:07:54.196Z,60.54
2018-03-20T02:10:21.737Z,59.94
2018-03-20T02:12:49.311Z,59.95
2018-03-20T02:15:16.864Z,60.61
2018-03-20T02:17:44.432Z,60.20
2018-03-20T02:20:11.968Z,59.94
2018-03-20T02:22:39.533Z,59.93
2018-03-20T02:25:07.055Z,60.00
2018-03-20T02:27:34.638Z,60.04
2018-03-20T02:30:02.184Z,59.73
2018-03-20T02:32:29.779Z,59.73
2018-03-20T02:34:57.310Z,59.92
2018-03-20T02:37:24.835Z,60.00
2018-03-20T02:39:52.403Z,59.55
2018-03-20T02:42:20.034Z,59.51
2018-03-20T02:44:47.599Z,59.60
2018-03-20T02:47:15.148Z,59.09
2018-03-20T02:49:42.716Z,59.25
2018-03-20T02:52:10.252Z,58.97
2018-03-20T02:54:37.812Z,58.97
2018-03-20T02:57:05.392Z,58.61
2018-03-20T02:59:32.982Z,58.29
2018-03-20T03:02:00.508Z,58.50
2018-03-20T03:04:28.062Z,57.83
2018-03-20T03:06:55.616Z,57.48
2018-03-20T03:09:23.157Z,57.90
2018-03-20T03:11:50.722Z,57.35
2018-03-20T03:14:18.297Z,57.61
2018-03-20T03:16:46.271Z,57.21
2018-03-20T03:19:14.022Z,57.23
2018-03-20T03:21:41.628Z,57.27
2018-03-20T03:24:10.131Z,57.57
2018-03-20T03:26:37.759Z,58.51
2018-03-20T03:29:05.522Z,58.58
2018-03-20T03:31:33.075Z,58.33
2018-03-20T03:34:00.635Z,58.30
2018-03-20T03:36:28.189Z,57.54
2018-03-20T03:38:55.768Z,57.37
2018-03-20T03:41:23.295Z,57.29
2018-03-20T03:43:50.925Z,57.04
2018-03-20T03:46:18.472Z,58.08
2018-03-20T03:48:46.178Z,57.27
2018-03-20T03:51:13.709Z,56.35
2018-03-20T03:53:41.265Z,57.02
2018-03-20T03:56:08.850Z,56.77
2018-03-20T03:58:36.375Z,56.07
2018-03-20T04:01:03.938Z,56.17
2018-03-20T04:03:31.485Z,55.82
2018-03-20T04:05:59.057Z,56.11
2018-03-20T04:08:27.064Z,55.98
2018-03-20T04:10:54.617Z,55.68
2018-03-20T04:13:22.162Z,55.44
2018-03-20T04:15:49.740Z,55.67
2018-03-20T04:18:17.271Z,56.10
2018-03-20T04:20:44.797Z,55.76
2018-03-20T04:23:12.348Z,56.57
2018-03-20T04:25:39.884Z,56.88
2018-03-20T04:28:07.435Z,57.03
2018-03-20T04:30:34.954Z,56.37
2018-03-20T04:33:02.528Z,55.81
2018-03-20T04:35:30.056Z,55.44
2018-03-20T04:37:57.613Z,55.26
2018-03-20T04:40:25.128Z,54.67
2018-03-20T04:42:52.716Z,54.80
2018-03-20T04:45:20.252Z,55.50
2018-03-20T04:47:47.808Z,56.46
2018-03-20T04:50:15.351Z,57.62
2018-03-20T04:52:42.936Z,58.61
2018-03-20T04:55:10.509Z,59.08
2018-03-20T04:57:38.043Z,58.66
2018-03-20T05:00:05.709Z,58.96
2018-03-20T05:02:33.236Z,58.78
2018-03-20T05:05:00.800Z,58.89
2018-03-20T05:07:28.344Z,58.98
2018-03-20T05:09:55.899Z,60.31
2018-03-20T05:12:23.423Z,61.25
2018-03-20T05:14:50.959Z,61.60
2018-03-20T05:17:18.545Z,62.41
2018-03-20T05:19:51.684Z,61.09
2018-03-20T05:25:22.260Z,62.09
2018-03-20T05:27:49.827Z,62.72
2018-03-20T05:30:17.371Z,64.15
2018-03-20T05:32:44.948Z,64.64
2018-03-20T05:35:12.502Z,64.11
2018-03-20T05:37:40.067Z,64.02
2018-03-20T05:40:07.603Z,64.90
2018-03-20T05:42:35.163Z,64.35
2018-03-20T05:45:02.711Z,64.58
2018-03-20T05:47:35.929Z,65.29
2018-03-20T05:50:09.156Z,64.23
2018-03-20T05:52:36.707Z,65.12
2018-03-20T05:55:04.455Z,64.63
2018-03-20T05:57:32.037Z,63.50
2018-03-20T05:59:59.617Z,64.11
2018-03-20T06:02:27.155Z,64.72
2018-03-20T06:04:54.723Z,63.31
2018-03-20T06:07:22.333Z,63.51
2018-03-20T06:09:49.888Z,63.78
2018-03-20T06:12:17.433Z,64.03
2018-03-20T06:14:45.142Z,62.54
2018-03-20T06:17:12.832Z,62.96
2018-03-20T06:19:42.975Z,62.82
2018-03-20T06:22:10.588Z,64.43
2018-03-20T06:24:38.226Z,62.30
2018-03-20T06:27:05.742Z,62.84
2018-03-20T06:29:33.749Z,62.27
2018-03-20T06:32:01.319Z,61.97
2018-03-20T06:34:29.329Z,60.77
2018-03-20T06:36:56.890Z,59.84
2018-03-20T06:39:24.501Z,60.54
2018-03-20T06:41:52.057Z,61.00
2018-03-20T06:44:19.590Z,61.43
2018-03-20T06:46:47.168Z,61.85
2018-03-20T06:49:14.712Z,62.83
2018-03-20T06:51:42.289Z,62.35
2018-03-20T06:54:09.811Z,61.23
2018-03-20T06:56:37.414Z,61.05
2018-03-20T06:59:05.676Z,59.87
2018-03-20T07:01:34.507Z,60.17
2018-03-20T07:04:02.096Z,59.43
2018-03-20T07:06:29.881Z,58.69
2018-03-20T07:08:57.683Z,58.66
2018-03-20T07:11:25.224Z,58.42
2018-03-20T07:13:55.940Z,57.16
2018-03-20T07:16:23.670Z,56.90
2018-03-20T07:18:51.249Z,57.11
2018-03-20T07:21:18.789Z,56.15
2018-03-20T07:23:46.348Z,55.39
2018-03-20T07:26:13.872Z,54.72
2018-03-20T07:28:41.391Z,55.23
2018-03-20T07:31:08.979Z,55.08
2018-03-20T07:33:36.498Z,55.43
2018-03-20T07:36:06.646Z,56.27
2018-03-20T07:38:34.397Z,55.92
2018-03-20T07:41:04.577Z,56.17
2018-03-20T07:43:32.379Z,55.86
2018-03-20T07:46:00.143Z,56.13
2018-03-20T07:48:27.691Z,53.75
2018-03-20T07:50:55.623Z,52.46
2018-03-20T07:53:23.132Z,51.98
2018-03-20T07:55:50.727Z,52.86
2018-03-20T07:58:18.237Z,50.75
2018-03-20T08:00:45.771Z,51.54
2018-03-20T08:03:13.396Z,51.25
2018-03-20T08:05:40.932Z,52.96
2018-03-20T08:08:08.560Z,50.50
2018-03-20T08:10:36.090Z,51.50
2018-03-20T08:13:03.659Z,50.93
2018-03-20T08:15:32.152Z,51.49
2018-03-20T08:17:59.738Z,50.26
2018-03-20T08:20:27.289Z,51.10
2018-03-20T08:22:54.852Z,49.54
2018-03-20T08:25:22.400Z,49.56
2018-03-20T08:27:50.010Z,48.09
2018-03-20T08:30:17.559Z,47.74
2018-03-20T08:32:45.083Z,49.74
2018-03-20T08:35:12.629Z,46.39
2018-03-20T08:37:40.206Z,46.75
2018-03-20T08:40:07.909Z,47.28
2018-03-20T08:42:35.446Z,46.06
2018-03-20T08:45:03.030Z,45.96
2018-03-20T08:47:30.552Z,46.43
2018-03-20T08:49:58.086Z,46.74
2018-03-20T08:52:25.631Z,47.13
2018-03-20T08:54:53.162Z,45.57
2018-03-20T08:57:20.699Z,46.56
2018-03-20T08:59:48.255Z,45.41
2018-03-20T09:02:16.570Z,46.13
2018-03-20T09:04:44.468Z,46.32
2018-03-20T09:07:12.160Z,46.99
2018-03-20T09:09:39.694Z,46.14
2018-03-20T09:12:09.377Z,47.76
2018-03-20T09:14:36.884Z,46.25
2018-03-20T09:17:04.778Z,48.09
2018-03-20T09:19:32.599Z,48.71
2018-03-20T09:22:04.450Z,48.94
2018-03-20T09:24:32.386Z,49.30
2018-03-20T09:27:00.278Z,50.55
2018-03-20T09:29:28.005Z,46.85
2018-03-20T09:31:55.518Z,46.29
2018-03-20T09:34:23.287Z,48.38
2018-03-20T09:36:50.918Z,48.58
2018-03-20T09:39:19.455Z,48.93
2018-03-20T09:41:47.027Z,49.31
2018-03-20T09:44:14.627Z,48.88
2018-03-20T09:46:42.487Z,50.61
2018-03-20T09:49:10.171Z,51.84
2018-03-20T09:51:37.761Z,49.29
2018-03-20T09:54:05.686Z,49.75
2018-03-20T09:56:33.222Z,49.65
2018-03-20T09:59:00.740Z,47.60
2018-03-20T10:01:28.313Z,49.77
2018-03-20T10:03:55.840Z,48.56
2018-03-20T10:06:23.400Z,49.11
2018-03-20T10:08:50.932Z,52.43
2018-03-20T10:11:18.500Z,50.67
2018-03-20T10:13:46.031Z,50.12
2018-03-20T10:16:13.600Z,48.54
2018-03-20T10:18:44.062Z,49.59
2018-03-20T10:21:13.061Z,50.65
2018-03-20T10:23:44.433Z,49.82
2018-03-20T10:26:13.932Z,53.10
2018-03-20T10:28:44.067Z,49.41
2018-03-20T10:31:13.168Z,51.04
2018-03-20T10:33:42.967Z,51.03
2018-03-20T10:36:13.262Z,51.58
2018-03-20T10:38:41.507Z,53.81
2018-03-20T10:41:09.253Z,54.38
2018-03-20T10:43:41.969Z,54.84
2018-03-20T10:46:10.283Z,55.19
2018-03-20T10:48:40.534Z,56.16
2018-03-20T10:51:10.498Z,58.18
2018-03-20T10:53:41.757Z,57.97
2018-03-20T10:56:10.588Z,57.67
2018-03-20T10:58:41.975Z,58.97
2018-03-20T11:01:15.411Z,60.28
2018-03-20T11:03:42.959Z,58.82
2018-03-20T11:06:13.411Z,59.93
2018-03-20T11:08:44.269Z,59.48
2018-03-20T11:11:14.501Z,59.36
2018-03-20T11:13:45.123Z,59.76
2018-03-20T11:16:15.646Z,60.99
2018-03-20T11:18:44.225Z,60.06
2018-03-20T11:21:14.948Z,60.13
2018-03-20T11:23:46.094Z,60.47
2018-03-20T11:26:13.722Z,60.96
2018-03-20T11:28:47.725Z,60.14
2018-03-20T11:31:19.007Z,60.69
2018-03-20T11:33:50.675Z,61.36
2018-03-20T11:36:21.202Z,59.40
2018-03-20T11:38:48.934Z,60.17
2018-03-20T11:41:18.380Z,59.82
2018-03-20T11:43:47.682Z,59.10
2018-03-20T11:46:15.396Z,61.60
2018-03-20T11:48:43.054Z,59.11
2018-03-20T11:51:15.875Z,59.66
2018-03-20T11:53:49.146Z,58.38
2018-03-20T11:56:22.244Z,57.93
2018-03-20T11:58:52.208Z,58.46
2018-03-20T12:01:20.497Z,57.76
2018-03-20T12:03:50.839Z,57.25
2018-03-20T12:06:19.928Z,57.80
2018-03-20T12:08:51.276Z,57.45
2018-03-20T12:11:18.783Z,56.89
2018-03-20T12:13:46.356Z,57.68
2018-03-20T12:16:13.868Z,56.23
2018-03-20T12:18:41.406Z,56.33
2018-03-20T12:21:08.911Z,57.08
2018-03-20T12:23:36.525Z,56.45
2018-03-20T12:26:04.044Z,57.08
2018-03-20T12:28:31.596Z,58.38
2018-03-20T12:30:59.131Z,56.82
2018-03-20T12:33:26.670Z,56.72
2018-03-20T12:35:54.232Z,56.79
2018-03-20T12:38:21.776Z,56.34
2018-03-20T12:40:49.343Z,56.01
2018-03-20T12:43:16.860Z,55.87
2018-03-20T12:45:44.437Z,55.50
2018-03-20T12:48:11.945Z,54.55
2018-03-20T12:50:39.497Z,54.36
2018-03-20T12:53:07.020Z,54.23
2018-03-20T12:55:34.572Z,54.21
2018-03-20T12:58:02.248Z,54.75
2018-03-20T13:00:29.856Z,54.86
2018-03-20T13:02:57.377Z,55.22
2018-03-20T13:05:24.965Z,56.11
2018-03-20T13:07:52.589Z,56.11
2018-03-20T13:10:20.152Z,56.24
2018-03-20T13:12:47.667Z,56.38
2018-03-20T13:15:15.219Z,57.11
2018-03-20T13:17:42.790Z,57.58
2018-03-20T13:20:10.348Z,58.16
2018-03-20T13:22:37.903Z,57.16
2018-03-20T13:25:06.229Z,57.39
2018-03-20T13:27:34.318Z,57.06
2018-03-20T13:30:03.418Z,56.40
2018-03-20T13:32:30.974Z,56.02
2018-03-20T13:35:01.092Z,56.32
2018-03-20T13:37:28.827Z,56.74
2018-03-20T13:39:57.132Z,56.41
2018-03-20T13:42:24.731Z,56.45
2018-03-20T13:44:55.085Z,55.47
2018-03-20T13:47:26.899Z,55.45
2018-03-20T13:49:54.620Z,56.53
2018-03-20T13:52:22.144Z,55.59
2018-03-20T13:54:50.232Z,55.72
2018-03-20T13:57:17.743Z,54.81
2018-03-20T13:59:45.310Z,55.69
2018-03-20T14:02:13.504Z,55.52
2018-03-20T14:04:41.066Z,54.97
2018-03-20T14:07:08.618Z,53.44
2018-03-20T14:09:36.449Z,53.95
2018-03-20T14:12:04.267Z,53.58
2018-03-20T14:14:31.892Z,53.45
2018-03-20T14:16:59.439Z,52.58
2018-03-20T14:19:26.979Z,53.21
2018-03-20T14:21:57.087Z,50.28
2018-03-20T14:24:28.345Z,49.79
2018-03-20T14:26:59.943Z,50.00
2018-03-20T14:29:31.963Z,49.02
2018-03-20T14:32:04.103Z,48.90
2018-03-20T14:34:35.476Z,49.05
2018-03-20T14:37:06.401Z,48.32
2018-03-20T14:42:14.763Z,48.39
2018-03-20T14:44:47.562Z,48.01
2018-03-20T14:47:23.420Z,45.76
2018-03-20T14:49:55.621Z,45.15
2018-03-20T14:52:31.882Z,45.21
2018-03-20T14:55:03.428Z,44.07
2018-03-20T14:57:37.954Z,43.94
2018-03-20T15:00:19.916Z,44.17
2018-03-20T15:02:54.244Z,42.63
2018-03-20T15:05:26.298Z,42.39
2018-03-20T15:07:58.728Z,41.66
2018-03-20T15:10:29.623Z,40.88
2018-03-20T15:13:00.908Z,40.81
2018-03-20T15:15:31.778Z,40.23
2018-03-20T15:18:03.797Z,39.38
2018-03-20T15:20:36.873Z,39.25
2018-03-20T15:23:07.487Z,39.01
2018-03-20T15:25:40.033Z,38.54
2018-03-20T15:28:11.297Z,37.81
2018-03-20T15:30:43.242Z,37.82
2018-03-20T15:33:14.294Z,38.07
2018-03-20T15:35:47.108Z,36.14
2018-03-20T15:38:19.657Z,37.57
2018-03-20T15:40:50.579Z,35.30
2018-03-20T15:43:22.080Z,35.63
2018-03-20T15:45:53.024Z,36.66
2018-03-20T15:48:24.864Z,37.61
2018-03-20T15:50:55.569Z,36.67
2018-03-20T15:53:26.613Z,34.74
2018-03-20T15:55:58.468Z,36.85
2018-03-20T15:58:31.092Z,37.11
2018-03-20T16:00:59.875Z,36.84
2018-03-20T16:03:29.429Z,37.13
2018-03-20T16:05:59.398Z,37.22
2018-03-20T16:08:32.064Z,37.12
2018-03-20T16:11:00.224Z,36.52
2018-03-20T16:13:27.972Z,37.39
2018-03-20T16:15:55.482Z,37.48
2018-03-20T16:18:27.373Z,36.25
2018-03-20T16:20:57.978Z,34.69
2018-03-20T16:23:26.005Z,35.13
2018-03-20T16:25:53.639Z,36.78
2018-03-20T16:28:23.517Z,36.39
2018-03-20T16:30:53.575Z,35.95
2018-03-20T16:33:22.264Z,33.61
2018-03-20T16:35:51.355Z,33.41
2018-03-20T16:38:19.111Z,33.95
2018-03-20T16:40:46.656Z,35.18
2018-03-20T16:43:16.871Z,33.87
2018-03-20T16:45:45.364Z,33.86
2018-03-20T16:48:13.505Z,34.10
2018-03-20T16:50:41.898Z,34.27
2018-03-20T16:53:10.817Z,33.39
2018-03-20T16:55:43.053Z,33.90
2018-03-20T16:58:11.325Z,33.94
2018-03-20T17:00:39.252Z,34.55
2018-03-20T17:03:07.569Z,34.37
2018-03-20T17:05:35.602Z,34.51
2018-03-20T17:08:04.360Z,35.06
2018-03-20T17:10:31.906Z,34.90
2018-03-20T17:13:01.501Z,34.46
2018-03-20T17:15:31.049Z,34.26
2018-03-20T17:18:02.693Z,34.55
2018-03-20T17:20:30.641Z,33.94
2018-03-20T17:23:01.924Z,34.33
2018-03-20T17:25:31.993Z,34.56
2018-03-20T17:28:02.542Z,35.29
2018-03-20T17:30:32.594Z,35.53
2018-03-20T17:33:03.821Z,35.26
2018-03-20T17:35:38.697Z,35.14
2018-03-20T17:38:06.926Z,35.70
2018-03-20T17:40:35.462Z,35.04
2018-03-20T17:43:03.255Z,35.23
2018-03-20T17:45:34.827Z,35.31
2018-03-20T17:48:02.388Z,35.51
2018-03-20T17:50:29.922Z,36.27
2018-03-20T17:52:57.474Z,36.39
2018-03-20T17:55:25.004Z,36.13
2018-03-20T17:57:52.561Z,36.69
2018-03-20T18:00:20.082Z,37.05
2018-03-20T18:02:47.636Z,36.13
2018-03-20T18:05:15.172Z,36.20
2018-03-20T18:07:42.687Z,35.63
2018-03-20T18:10:10.230Z,36.20
2018-03-20T18:12:37.751Z,36.10
2018-03-20T18:15:05.436Z,36.63
2018-03-20T18:17:32.991Z,36.63
2018-03-20T18:20:00.548Z,36.88
2018-03-20T18:22:28.100Z,36.57
2018-03-20T18:24:55.642Z,36.63
2018-03-20T18:27:23.221Z,37.37
2018-03-20T18:29:51.110Z,37.56
2018-03-20T18:32:18.663Z,37.35
2018-03-20T18:34:46.883Z,38.11
2018-03-20T18:37:15.629Z,37.41
2018-03-20T18:39:43.233Z,38.27
2018-03-20T18:42:10.783Z,38.27
2018-03-20T18:44:38.291Z,37.40
2018-03-20T18:47:05.963Z,38.53
2018-03-20T18:49:33.491Z,38.70
2018-03-20T18:52:01.039Z,39.38
2018-03-20T18:54:28.743Z,38.63
2018-03-20T18:56:56.320Z,38.95
2018-03-20T18:59:23.844Z,39.80
2018-03-20T19:01:51.404Z,40.22
2018-03-20T19:04:18.956Z,39.85
2018-03-20T19:06:46.559Z,41.11
2018-03-20T19:09:14.128Z,40.64
2018-03-20T19:11:41.768Z,40.72
2018-03-20T19:14:09.371Z,41.10
2018-03-20T19:16:37.018Z,42.16
2018-03-20T19:19:05.600Z,41.26
2018-03-20T19:21:33.385Z,41.35
2018-03-20T19:24:00.929Z,41.81
2018-03-20T19:26:28.687Z,41.17
2018-03-20T19:28:56.315Z,41.99
2018-03-20T19:31:24.569Z,41.88
2018-03-20T19:33:52.104Z,41.96
2018-03-20T19:36:19.788Z,41.42
2018-03-20T19:38:48.088Z,41.76
2018-03-20T19:41:15.829Z,41.66
2018-03-20T19:43:43.376Z,41.42
2018-03-20T19:46:11.411Z,41.21
2018-03-20T19:48:38.931Z,42.23
2018-03-20T19:51:11.514Z,41.76
2018-03-20T19:53:39.152Z,42.17
2018-03-20T19:56:06.848Z,43.54
2018-03-20T19:58:34.378Z,43.13
2018-03-20T20:01:01.929Z,43.30
2018-03-20T20:03:29.495Z,43.67
2018-03-20T20:05:57.085Z,43.42
2018-03-20T20:08:24.660Z,42.82
2018-03-20T20:10:52.228Z,43.46
2018-03-20T20:13:19.772Z,43.36
2018-03-20T20:15:47.307Z,43.87
2018-03-20T20:18:14.857Z,44.99
2018-03-20T20:20:42.409Z,43.56
2018-03-20T20:23:09.962Z,43.99
2018-03-20T20:25:37.523Z,44.85
2018-03-20T20:28:05.081Z,45.18
2018-03-20T20:30:32.688Z,44.73
2018-03-20T20:33:00.245Z,44.34
2018-03-20T20:35:27.784Z,46.20
2018-03-20T20:37:55.367Z,48.69
2018-03-20T20:40:22.892Z,49.30
2018-03-20T20:42:50.440Z,49.56
2018-03-20T20:45:17.952Z,49.69
2018-03-20T20:47:45.487Z,49.91
2018-03-20T20:50:13.033Z,50.84
2018-03-20T20:52:40.560Z,53.60
2018-03-20T20:55:08.114Z,53.03
2018-03-20T20:57:35.675Z,53.78
2018-03-20T21:00:03.263Z,52.97
2018-03-20T21:02:30.771Z,52.82
2018-03-20T21:04:58.329Z,51.94
2018-03-20T21:07:25.880Z,52.66
2018-03-20T21:09:53.407Z,54.86
2018-03-20T21:12:21.878Z,55.63
2018-03-20T21:14:49.401Z,55.74
2018-03-20T21:17:17.494Z,55.77
2018-03-20T21:19:45.020Z,55.35
2018-03-20T21:22:12.584Z,56.49
2018-03-20T21:24:40.580Z,56.46
2018-03-20T21:27:08.240Z,57.25
2018-03-20T21:29:35.823Z,58.73
2018-03-20T21:32:03.784Z,58.81
2018-03-20T21:34:31.685Z,58.38
2018-03-20T21:36:59.353Z,57.07
2018-03-20T21:39:26.886Z,57.43
2018-03-20T21:41:55.566Z,58.47
2018-03-20T21:44:24.628Z,58.44
2018-03-20T21:46:53.040Z,59.72
2018-03-20T21:49:20.577Z,60.70
2018-03-20T21:51:48.488Z,60.52
2018-03-20T21:54:16.404Z,58.86
2018-03-20T21:56:44.005Z,58.64
2018-03-20T21:59:12.223Z,58.54
2018-03-20T22:01:39.791Z,59.16
2018-03-20T22:04:07.408Z,59.24
2018-03-20T22:06:35.011Z,58.86
2018-03-20T22:09:02.750Z,58.83
2018-03-20T22:11:30.510Z,59.06
2018-03-20T22:13:58.333Z,59.19
2018-03-20T22:16:26.271Z,60.68
2018-03-20T22:18:54.246Z,61.90
2018-03-20T22:21:22.766Z,61.67
2018-03-20T22:23:50.323Z,61.04
2018-03-20T22:26:18.045Z,61.60
2018-03-20T22:28:46.230Z,62.16
2018-03-20T22:31:13.783Z,63.93
2018-03-20T22:33:41.405Z,64.18
2018-03-20T22:36:09.660Z,61.70
2018-03-20T22:38:37.954Z,61.27
2018-03-20T22:41:05.497Z,62.14
2018-03-20T22:43:33.243Z,61.86
2018-03-20T22:46:01.042Z,61.66
2018-03-20T22:48:29.352Z,62.06
2018-03-20T22:50:56.896Z,62.70
2018-03-20T22:53:25.471Z,63.18
2018-03-20T22:55:54.738Z,63.09
2018-03-20T22:58:22.519Z,63.47
2018-03-20T23:00:50.063Z,63.20
2018-03-20T23:03:18.033Z,62.97
2018-03-20T23:05:45.716Z,63.49
2018-03-20T23:08:13.283Z,63.96
2018-03-20T23:10:40.818Z,64.19
2018-03-20T23:13:08.376Z,63.97
2018-03-20T23:15:35.919Z,64.86
2018-03-20T23:18:03.476Z,65.46
2018-03-20T23:20:31.069Z,67.42
2018-03-20T23:23:01.058Z,67.52
2018-03-20T23:25:28.685Z,68.30
2018-03-20T23:27:57.054Z,68.00
2018-03-20T23:30:25.456Z,68.21
2018-03-20T23:32:54.187Z,67.90
2018-03-20T23:35:22.986Z,68.78
2018-03-20T23:37:50.841Z,68.73
2018-03-20T23:40:18.740Z,68.83
2018-03-20T23:42:46.301Z,69.38
2018-03-20T23:45:14.015Z,68.54
2018-03-20T23:47:42.141Z,68.05
2018-03-20T23:50:09.963Z,67.61
2018-03-20T23:52:37.889Z,65.21
2018-03-20T23:55:06.503Z,65.37
2018-03-20T23:57:34.127Z,64.39
